Time;durP1;ratioP1;P1;durP2;ratioP2;P2;SDS_P1;SDS_P2;PMS_P1;PMS_P2;Temp;Humidity;BMP_temperature;BMP_pressure;BME280_temperature;BME280_humidity;BME280_pressure;Samples;Min_cycle;Max_cycle;Signal;HPM_P1;HPM_P2
2022/03/24 00:02:06;;;;;;;72.20;45.80;;;5.10;70.80;;;;;;5090176;28;20554;-69
2022/03/24 00:04:32;;;;;;;73.18;46.25;;;5.10;70.60;;;;;;5108067;27;20761;-70
2022/03/24 00:06:58;;;;;;;70.75;46.92;;;5.10;70.80;;;;;;5113854;27;20107;-70
2022/03/24 00:09:23;;;;;;;74.53;48.43;;;5.00;71.00;;;;;;5076100;27;20070;-70
2022/03/24 00:11:49;;;;;;;72.23;47.10;;;5.00;70.90;;;;;;5106079;28;20044;-69
2022/03/24 00:14:17;;;;;;;71.00;46.43;;;5.00;71.10;;;;;;5110772;27;20035;-69
2022/03/24 00:16:43;;;;;;;74.50;47.53;;;5.00;71.20;;;;;;5090011;28;20048;-70
2022/03/24 00:19:09;;;;;;;76.60;50.05;;;4.90;71.60;;;;;;5096338;28;20488;-69
2022/03/24 00:21:36;;;;;;;74.43;49.13;;;4.90;71.50;;;;;;5076119;28;20054;-68
2022/03/24 00:24:02;;;;;;;76.45;48.72;;;4.90;71.40;;;;;;5092346;28;20446;-70
2022/03/24 00:26:27;;;;;;;72.45;46.90;;;4.90;71.50;;;;;;5106353;27;20035;-69
2022/03/24 00:28:53;;;;;;;74.67;49.00;;;4.90;71.60;;;;;;5092418;28;20058;-69
2022/03/24 00:31:19;;;;;;;77.87;49.17;;;4.80;71.80;;;;;;5058454;28;20044;-69
2022/03/24 00:33:45;;;;;;;82.65;51.60;;;4.80;71.60;;;;;;5092284;28;20085;-70
2022/03/24 00:36:11;;;;;;;78.07;49.83;;;4.80;71.70;;;;;;5062987;28;20507;-70
2022/03/24 00:38:38;;;;;;;77.13;48.20;;;4.80;71.90;;;;;;5075742;28;20043;-70
2022/03/24 00:41:04;;;;;;;76.57;49.13;;;4.80;72.00;;;;;;5078100;28;20048;-69
2022/03/24 00:43:30;;;;;;;77.97;50.83;;;4.80;72.00;;;;;;5073024;28;20054;-69
2022/03/24 00:45:57;;;;;;;80.07;51.92;;;4.80;71.90;;;;;;5076136;28;20055;-69
2022/03/24 00:48:24;;;;;;;83.93;52.17;;;4.80;71.90;;;;;;5125926;27;20119;-69
2022/03/24 00:50:50;;;;;;;78.65;50.35;;;4.80;72.00;;;;;;5093797;28;20043;-69
2022/03/24 00:53:16;;;;;;;86.25;52.60;;;4.90;71.80;;;;;;5125939;27;20051;-69
2022/03/24 00:55:43;;;;;;;85.20;51.83;;;4.90;72.00;;;;;;5080733;28;20039;-69
2022/03/24 00:58:10;;;;;;;85.15;53.00;;;5.00;71.90;;;;;;5126402;27;20119;-70
2022/03/24 01:00:37;;;;;;;85.03;52.08;;;5.00;72.00;;;;;;5084748;28;20044;-68
2022/03/24 01:03:07;;;;;;;80.95;51.13;;;5.00;71.90;;;;;;5123209;27;20055;-70
2022/03/24 01:05:37;;;;;;;86.80;51.42;;;5.00;72.00;;;;;;5091794;28;20050;-67
2022/03/24 01:08:05;;;;;;;81.95;52.10;;;4.90;72.00;;;;;;5126050;27;20052;-67
2022/03/24 01:10:32;;;;;;;83.03;52.28;;;4.90;71.90;;;;;;5113159;27;20523;-67
2022/03/24 01:12:59;;;;;;;82.80;52.15;;;4.90;71.80;;;;;;5102139;27;20050;-67
2022/03/24 01:15:26;;;;;;;84.32;52.63;;;4.90;72.20;;;;;;5103889;28;20531;-67
2022/03/24 01:17:53;;;;;;;88.40;54.65;;;5.00;72.00;;;;;;5086007;28;20054;-67
2022/03/24 01:20:19;;;;;;;83.20;51.35;;;5.00;71.80;;;;;;5086399;28;20051;-67
2022/03/24 01:22:45;;;;;;;86.88;54.15;;;5.00;71.80;;;;;;5071605;28;20056;-67
2022/03/24 01:25:11;;;;;;;88.35;54.00;;;5.00;71.80;;;;;;5066030;28;20044;-67
2022/03/24 01:27:40;;;;;;;82.53;51.60;;;5.10;71.80;;;;;;5065393;28;20517;-67
2022/03/24 01:30:10;;;;;;;86.63;53.53;;;5.10;71.80;;;;;;5049520;28;20509;-68
2022/03/24 01:32:36;;;;;;;85.35;52.03;;;5.10;71.50;;;;;;5065235;28;20037;-68
2022/03/24 01:35:07;;;;;;;83.13;52.88;;;5.10;71.50;;;;;;5082862;28;20036;-67
2022/03/24 01:37:34;;;;;;;83.32;51.53;;;5.10;71.50;;;;;;5075852;28;20047;-67
2022/03/24 01:40:00;;;;;;;88.78;53.85;;;5.10;71.60;;;;;;5069650;28;20088;-68
2022/03/24 01:42:26;;;;;;;83.33;52.43;;;5.00;71.50;;;;;;5069712;28;20095;-67
2022/03/24 01:44:55;;;;;;;87.82;52.50;;;5.00;71.70;;;;;;5065269;28;20045;-67
2022/03/24 01:47:21;;;;;;;86.80;53.00;;;5.00;71.80;;;;;;5056869;28;20115;-67
2022/03/24 01:49:47;;;;;;;87.53;52.77;;;5.00;71.60;;;;;;5051945;28;20123;-67
2022/03/24 01:52:15;;;;;;;90.80;54.40;;;4.90;71.70;;;;;;5059663;28;20093;-67
2022/03/24 01:54:44;;;;;;;89.43;53.92;;;4.90;71.80;;;;;;5073489;28;20068;-68
2022/03/24 01:57:11;;;;;;;86.55;53.72;;;4.90;71.90;;;;;;5076853;28;20075;-67
2022/03/24 01:59:38;;;;;;;91.57;56.35;;;4.80;72.00;;;;;;5053082;28;20165;-67
2022/03/24 02:02:08;;;;;;;89.22;53.17;;;4.80;71.90;;;;;;5056386;28;20040;-67
2022/03/24 02:04:35;;;;;;;88.35;53.65;;;4.70;72.10;;;;;;5070906;28;20079;-67
2022/03/24 02:07:05;;;;;;;85.60;53.75;;;4.70;72.00;;;;;;5081970;28;20048;-67
2022/03/24 02:09:38;;;;;;;87.18;54.13;;;4.70;72.20;;;;;;5064917;28;20381;-67
2022/03/24 02:12:09;;;;;;;93.28;54.53;;;4.70;72.40;;;;;;5071817;28;20551;-67
2022/03/24 02:14:35;;;;;;;87.88;54.55;;;4.70;72.40;;;;;;5065160;28;20178;-67
2022/03/24 02:17:01;;;;;;;90.20;55.55;;;4.60;72.40;;;;;;5064689;28;20048;-67
2022/03/24 02:19:28;;;;;;;93.55;56.00;;;4.60;72.60;;;;;;5047537;28;20051;-67
2022/03/24 02:22:18;;;;;;;90.55;54.75;;;4.70;72.30;;;;;;5075742;28;20095;-67
2022/03/24 02:24:45;;;;;;;90.43;55.33;;;4.70;72.40;;;;;;5098169;28;20403;-67
2022/03/24 02:27:11;;;;;;;100.05;57.75;;;4.70;72.60;;;;;;5074527;28;20274;-67
2022/03/24 02:29:38;;;;;;;97.65;57.80;;;4.70;72.70;;;;;;5081201;28;20043;-67
2022/03/24 02:32:08;;;;;;;94.72;58.22;;;4.60;72.70;;;;;;5087793;28;20070;-67
2022/03/24 02:34:38;;;;;;;98.20;57.05;;;4.60;72.70;;;;;;5088203;28;20039;-67
2022/03/24 02:37:07;;;;;;;97.28;57.47;;;4.50;72.80;;;;;;5058961;28;20539;-67
2022/03/24 02:39:38;;;;;;;92.90;56.17;;;4.50;73.00;;;;;;5099230;28;20044;-67
2022/03/24 02:42:05;;;;;;;96.03;58.40;;;4.40;73.00;;;;;;5096886;28;20046;-67
2022/03/24 02:44:32;;;;;;;93.45;56.88;;;4.40;73.10;;;;;;5062475;28;20048;-67
2022/03/24 02:47:02;;;;;;;103.38;58.22;;;4.30;73.40;;;;;;5084458;28;20507;-67
2022/03/24 02:49:30;;;;;;;93.22;57.55;;;4.30;73.40;;;;;;5097596;28;20371;-67
2022/03/24 02:52:00;;;;;;;97.13;58.42;;;4.30;73.40;;;;;;5099279;28;20036;-67
2022/03/24 02:54:28;;;;;;;100.75;57.92;;;4.30;73.60;;;;;;5097027;28;20612;-67
2022/03/24 02:56:54;;;;;;;101.05;59.10;;;4.30;73.80;;;;;;5096943;28;20067;-67
2022/03/24 02:59:20;;;;;;;100.53;58.50;;;4.30;74.20;;;;;;5084490;28;20051;-67
2022/03/24 03:01:54;;;;;;;100.75;60.15;;;4.20;74.00;;;;;;5082236;28;20040;-67
2022/03/24 03:04:20;;;;;;;98.85;58.15;;;4.20;73.90;;;;;;5081303;28;20043;-67
2022/03/24 03:06:46;;;;;;;106.57;59.75;;;4.10;74.00;;;;;;5086323;28;20058;-67
2022/03/24 03:09:16;;;;;;;106.87;61.17;;;4.10;74.10;;;;;;5102681;28;20040;-67
2022/03/24 03:11:46;;;;;;;105.90;60.80;;;4.00;74.10;;;;;;5103787;28;20036;-67
2022/03/24 03:14:15;;;;;;;104.05;60.88;;;4.00;74.30;;;;;;5072938;28;20243;-67
2022/03/24 03:16:41;;;;;;;107.13;60.10;;;4.00;74.40;;;;;;5093293;28;20051;-67
2022/03/24 03:19:08;;;;;;;100.40;58.50;;;3.90;74.30;;;;;;5082472;28;20514;-67
2022/03/24 03:21:38;;;;;;;101.65;58.50;;;3.90;74.50;;;;;;5081351;28;20573;-67
2022/03/24 03:24:05;;;;;;;106.43;60.88;;;3.80;74.60;;;;;;5086739;28;20051;-67
2022/03/24 03:26:32;;;;;;;107.13;61.53;;;3.80;76.90;;;;;;5080987;28;20082;-67
2022/03/24 03:28:58;;;;;;;115.57;64.53;;;3.70;76.70;;;;;;5082121;28;20043;-67
2022/03/24 03:31:24;;;;;;;105.72;61.40;;;3.70;76.00;;;;;;5083287;28;20035;-67
2022/03/24 03:33:51;;;;;;;102.80;58.90;;;3.60;75.80;;;;;;5081213;28;20496;-67
2022/03/24 03:36:18;;;;;;;106.43;59.13;;;3.50;75.70;;;;;;5086113;28;20051;-67
2022/03/24 03:38:45;;;;;;;107.47;61.72;;;3.50;75.70;;;;;;5098759;28;20059;-67
2022/03/24 03:41:12;;;;;;;104.28;57.08;;;3.50;75.70;;;;;;5083690;28;20114;-67
2022/03/24 03:43:37;;;;;;;100.40;60.45;;;3.40;75.70;;;;;;5072691;28;20135;-69
2022/03/24 03:46:03;;;;;;;112.13;63.07;;;3.40;75.70;;;;;;5080840;28;20138;-69
2022/03/24 03:48:30;;;;;;;101.30;58.93;;;3.40;75.80;;;;;;5064943;28;20044;-69
2022/03/24 03:50:57;;;;;;;109.30;60.35;;;3.30;75.90;;;;;;5098221;28;20097;-69
2022/03/24 03:53:23;;;;;;;112.80;63.55;;;3.30;75.80;;;;;;5098626;28;20552;-69
2022/03/24 03:55:49;;;;;;;114.25;62.38;;;3.20;75.90;;;;;;5102862;28;20043;-70
2022/03/24 03:58:15;;;;;;;107.15;64.22;;;3.20;76.00;;;;;;5100139;28;20131;-70
2022/03/24 04:00:55;;;;;;;105.75;60.63;;;3.20;76.00;;;;;;5103380;28;20058;-70
2022/03/24 04:03:23;;;;;;;103.30;58.75;;;3.20;76.10;;;;;;5088920;28;20036;-69
2022/03/24 04:05:51;;;;;;;103.90;59.67;;;3.20;76.20;;;;;;5075977;28;20069;-70
2022/03/24 04:08:17;;;;;;;104.50;61.60;;;3.20;76.30;;;;;;5082016;28;20461;-70
2022/03/24 04:10:43;;;;;;;112.37;64.50;;;3.10;76.20;;;;;;5096669;28;20043;-69
2022/03/24 04:13:10;;;;;;;105.43;60.87;;;3.10;76.20;;;;;;5058294;28;20040;-69
2022/03/24 04:15:36;;;;;;;109.80;60.95;;;3.10;76.30;;;;;;5080828;28;20040;-70
2022/03/24 04:18:02;;;;;;;107.00;61.03;;;3.00;76.50;;;;;;5104631;28;20051;-70
2022/03/24 04:20:27;;;;;;;109.00;60.15;;;3.00;76.80;;;;;;5107625;28;20048;-69
2022/03/24 04:22:58;;;;;;;110.33;63.00;;;3.00;76.60;;;;;;5067067;28;20565;-69
2022/03/24 04:25:24;;;;;;;111.68;62.65;;;2.90;76.80;;;;;;5075386;28;20511;-69
2022/03/24 04:27:50;;;;;;;101.83;59.17;;;2.90;76.80;;;;;;5102027;28;20079;-69
2022/03/24 04:30:17;;;;;;;119.35;65.22;;;2.90;76.90;;;;;;5095888;28;20068;-69
2022/03/24 04:32:44;;;;;;;111.72;64.60;;;2.90;76.90;;;;;;5083815;28;20280;-69
2022/03/24 04:35:11;;;;;;;124.72;68.85;;;2.80;77.00;;;;;;5097552;28;20036;-67
2022/03/24 04:37:37;;;;;;;117.03;63.92;;;2.80;77.10;;;;;;5101866;28;20475;-67
2022/03/24 04:40:05;;;;;;;107.30;60.67;;;2.80;77.30;;;;;;5094265;28;20259;-67
2022/03/24 04:42:31;;;;;;;104.78;60.45;;;2.90;77.30;;;;;;5079608;28;20518;-67
2022/03/24 04:44:58;;;;;;;122.60;68.85;;;2.90;77.50;;;;;;5093885;28;20557;-67
2022/03/24 04:47:24;;;;;;;124.30;68.90;;;2.90;77.40;;;;;;5076741;28;20472;-67
2022/03/24 04:49:50;;;;;;;121.40;66.10;;;2.80;77.30;;;;;;5093188;28;20044;-67
2022/03/24 04:52:16;;;;;;;114.50;64.13;;;2.80;77.30;;;;;;5084664;28;20112;-67
2022/03/24 04:54:42;;;;;;;135.02;71.13;;;2.80;77.50;;;;;;5098132;28;20079;-67
2022/03/24 04:57:08;;;;;;;131.98;71.85;;;2.80;77.90;;;;;;5103469;28;20559;-67
2022/03/24 04:59:34;;;;;;;125.47;67.73;;;2.80;77.90;;;;;;5079132;28;20154;-67
2022/03/24 05:02:00;;;;;;;129.68;71.68;;;2.80;77.90;;;;;;5101835;28;20048;-67
2022/03/24 05:04:26;;;;;;;132.70;71.97;;;2.80;77.90;;;;;;5053039;28;20093;-67
2022/03/24 05:06:51;;;;;;;144.43;73.07;;;2.70;77.90;;;;;;5091392;28;20093;-67
2022/03/24 05:09:17;;;;;;;121.33;68.93;;;2.70;78.00;;;;;;5098280;28;20282;-67
2022/03/24 05:11:43;;;;;;;128.27;68.70;;;2.70;78.00;;;;;;5083496;28;20047;-67
2022/03/24 05:14:10;;;;;;;134.20;72.65;;;2.70;78.10;;;;;;5062038;28;20068;-67
2022/03/24 05:16:35;;;;;;;134.63;72.65;;;2.70;78.20;;;;;;5081370;28;20046;-67
2022/03/24 05:19:01;;;;;;;125.00;67.10;;;2.70;78.20;;;;;;5075767;28;20150;-67
2022/03/24 05:21:27;;;;;;;123.37;68.47;;;2.70;78.20;;;;;;5095037;28;20420;-67
2022/03/24 05:23:53;;;;;;;121.53;66.18;;;2.70;78.20;;;;;;5070096;28;20048;-67
2022/03/24 05:26:23;;;;;;;121.23;66.43;;;2.70;78.30;;;;;;5076578;28;20559;-67
2022/03/24 05:28:49;;;;;;;132.02;68.93;;;2.70;78.30;;;;;;5065665;28;20047;-67
2022/03/24 05:31:16;;;;;;;131.43;71.53;;;2.70;78.30;;;;;;5090360;28;20123;-67
2022/03/24 05:33:43;;;;;;;124.38;68.80;;;2.70;78.30;;;;;;5083012;28;20032;-67
2022/03/24 05:36:09;;;;;;;127.60;69.07;;;2.70;78.30;;;;;;5048717;28;20107;-67
2022/03/24 05:38:34;;;;;;;134.57;69.65;;;2.70;78.40;;;;;;5082451;28;20040;-67
2022/03/24 05:41:01;;;;;;;136.70;70.73;;;2.70;78.50;;;;;;5064958;28;20118;-67
2022/03/24 05:43:26;;;;;;;128.45;70.28;;;2.70;78.60;;;;;;5065779;28;20106;-67
2022/03/24 05:45:52;;;;;;;139.93;73.73;;;2.70;78.60;;;;;;5063889;28;20079;-72
2022/03/24 05:48:18;;;;;;;128.83;69.93;;;2.70;78.60;;;;;;5066503;28;20059;-67
2022/03/24 05:50:44;;;;;;;123.13;67.13;;;2.70;78.80;;;;;;5050671;28;20114;-67
2022/03/24 05:53:10;;;;;;;138.40;69.93;;;2.70;78.70;;;;;;5048567;28;20532;-67
2022/03/24 05:55:38;;;;;;;128.90;69.97;;;2.70;78.70;;;;;;5054201;28;20040;-67
2022/03/24 05:58:04;;;;;;;126.32;69.68;;;2.70;78.80;;;;;;5082220;28;20130;-67
2022/03/24 06:00:31;;;;;;;123.80;67.40;;;2.70;78.90;;;;;;5074118;28;20479;-67
2022/03/24 06:02:57;;;;;;;121.10;66.10;;;2.80;78.90;;;;;;5071317;28;20518;-67
2022/03/24 06:05:25;;;;;;;119.78;65.45;;;2.80;78.80;;;;;;5072860;28;20044;-67
2022/03/24 06:07:51;;;;;;;130.20;70.63;;;2.90;79.00;;;;;;5035827;28;20499;-67
2022/03/24 06:10:18;;;;;;;146.15;74.68;;;2.90;79.00;;;;;;5057013;28;20098;-67
2022/03/24 06:12:47;;;;;;;137.00;71.45;;;3.00;79.10;;;;;;5048751;28;20043;-67
2022/03/24 06:15:13;;;;;;;140.60;71.25;;;3.10;79.20;;;;;;5062197;28;20068;-67
2022/03/24 06:17:39;;;;;;;145.15;76.43;;;3.20;79.20;;;;;;5036108;28;20078;-67
2022/03/24 06:20:08;;;;;;;145.53;75.20;;;3.30;79.80;;;;;;5037482;28;20048;-67
2022/03/24 06:22:51;;;;;;;129.63;69.68;;;3.40;79.50;;;;;;5088494;28;20060;-67
2022/03/24 06:25:18;;;;;;;147.07;76.88;;;3.50;79.60;;;;;;5105661;28;20385;-67
2022/03/24 06:27:46;;;;;;;142.38;75.35;;;3.70;79.70;;;;;;5087691;28;20442;-67
2022/03/24 06:30:14;;;;;;;146.15;75.45;;;3.80;79.60;;;;;;5079346;28;20115;-67
2022/03/24 06:32:40;;;;;;;139.52;73.88;;;3.90;79.60;;;;;;5063522;28;20078;-67
2022/03/24 06:35:08;;;;;;;142.73;75.93;;;4.00;79.70;;;;;;5093125;28;20044;-67
2022/03/24 06:37:39;;;;;;;128.77;71.43;;;4.10;79.60;;;;;;5066273;28;20043;-67
2022/03/24 06:40:10;;;;;;;129.57;71.05;;;4.20;79.50;;;;;;5077686;28;20043;-67
2022/03/24 06:42:36;;;;;;;145.25;76.07;;;4.30;80.00;;;;;;5101377;28;20127;-67
2022/03/24 06:45:04;;;;;;;146.48;77.57;;;4.50;79.80;;;;;;5099364;28;20499;-67
2022/03/24 06:47:31;;;;;;;141.70;74.82;;;4.60;79.50;;;;;;5101826;28;20047;-68
2022/03/24 06:49:57;;;;;;;142.48;76.13;;;4.70;79.40;;;;;;5099014;28;20046;-68
2022/03/24 06:52:22;;;;;;;145.13;78.10;;;4.90;79.50;;;;;;5080413;28;20472;-68
2022/03/24 06:54:48;;;;;;;146.70;78.10;;;5.00;79.50;;;;;;5086184;28;20415;-68
2022/03/24 06:57:14;;;;;;;142.00;74.17;;;5.10;79.30;;;;;;5102265;28;20050;-68
2022/03/24 06:59:43;;;;;;;132.35;73.65;;;5.30;79.20;;;;;;5101425;28;20052;-68
2022/03/24 07:02:09;;;;;;;142.50;76.80;;;5.50;79.30;;;;;;5084008;28;20040;-68
2022/03/24 07:04:36;;;;;;;135.47;71.77;;;5.60;79.00;;;;;;5081577;28;20412;-68
2022/03/24 07:07:02;;;;;;;124.32;68.30;;;5.70;78.90;;;;;;5087863;28;20048;-68
2022/03/24 07:09:28;;;;;;;123.20;67.80;;;5.90;78.80;;;;;;5070921;28;20039;-68
2022/03/24 07:11:54;;;;;;;119.00;67.27;;;6.00;78.60;;;;;;5103151;28;20510;-68
2022/03/24 07:14:21;;;;;;;120.32;69.35;;;6.10;78.50;;;;;;5073015;28;20621;-68
2022/03/24 07:16:47;;;;;;;122.57;68.50;;;6.20;78.60;;;;;;5074919;28;20043;-69
2022/03/24 07:19:12;;;;;;;122.27;68.43;;;6.30;78.90;;;;;;5107458;28;20089;-68
2022/03/24 07:21:38;;;;;;;115.67;65.87;;;6.40;78.70;;;;;;5091661;28;20052;-68
2022/03/24 07:24:04;;;;;;;111.70;63.80;;;6.50;78.40;;;;;;5091191;28;20043;-68
2022/03/24 07:26:30;;;;;;;112.32;63.03;;;6.60;78.30;;;;;;5108246;28;20399;-68
2022/03/24 07:28:56;;;;;;;112.47;64.83;;;6.70;78.10;;;;;;5083830;28;20040;-68
2022/03/24 07:31:23;;;;;;;103.33;59.63;;;6.90;77.70;;;;;;5094304;28;20537;-68
2022/03/24 07:33:50;;;;;;;107.95;62.45;;;7.00;77.60;;;;;;5108716;28;20043;-68
2022/03/24 07:36:20;;;;;;;113.47;64.75;;;7.20;77.20;;;;;;5074270;28;20134;-69
2022/03/24 07:38:46;;;;;;;98.97;58.97;;;7.30;77.00;;;;;;5108575;28;20079;-69
2022/03/24 07:41:12;;;;;;;110.13;62.83;;;7.40;76.70;;;;;;5091261;28;20039;-69
2022/03/24 07:43:37;;;;;;;101.50;59.60;;;7.50;77.00;;;;;;5104993;28;20040;-69
2022/03/24 07:46:04;;;;;;;103.90;61.27;;;7.60;76.90;;;;;;5086400;28;20484;-69
2022/03/24 07:48:30;;;;;;;98.38;57.25;;;7.70;76.70;;;;;;5090572;28;20428;-68
2022/03/24 07:50:57;;;;;;;104.50;63.30;;;7.80;76.60;;;;;;5086314;28;20525;-68
2022/03/24 07:53:33;;;;;;;100.80;61.10;;;7.90;76.40;;;;;;5108125;28;20674;-68
2022/03/24 07:56:00;;;;;;;98.72;58.20;;;8.00;76.00;;;;;;5106374;28;20052;-69
2022/03/24 07:58:26;;;;;;;93.93;57.42;;;8.20;75.70;;;;;;5107759;28;20134;-69
2022/03/24 08:00:52;;;;;;;93.73;57.53;;;8.30;75.50;;;;;;5102782;28;20118;-69
2022/03/24 08:03:20;;;;;;;96.97;58.53;;;8.40;75.20;;;;;;5097113;28;20044;-69
2022/03/24 08:05:47;;;;;;;96.90;60.65;;;8.50;74.90;;;;;;5102387;28;20086;-69
2022/03/24 08:08:14;;;;;;;95.28;58.67;;;8.70;74.70;;;;;;5089772;28;20071;-68
2022/03/24 08:10:47;;;;;;;96.70;57.88;;;8.80;74.40;;;;;;5105686;28;20384;-68
2022/03/24 08:13:15;;;;;;;94.97;58.50;;;8.90;73.70;;;;;;5099261;28;20040;-69
2022/03/24 08:15:41;;;;;;;94.88;60.15;;;9.00;73.50;;;;;;5083125;28;20046;-69
2022/03/24 08:18:09;;;;;;;91.72;57.42;;;9.10;73.20;;;;;;5079521;28;20135;-69
2022/03/24 08:20:36;;;;;;;93.50;58.65;;;9.30;72.80;;;;;;5106826;28;20480;-69
2022/03/24 08:23:03;;;;;;;93.97;57.50;;;9.40;72.60;;;;;;5071185;28;20058;-69
2022/03/24 08:25:30;;;;;;;91.35;55.63;;;9.50;72.60;;;;;;5100595;28;20212;-69
2022/03/24 08:27:56;;;;;;;95.78;56.50;;;9.60;72.60;;;;;;5080469;28;20039;-69
2022/03/24 08:30:22;;;;;;;83.40;52.97;;;9.70;72.30;;;;;;5070070;28;20036;-69
2022/03/24 08:32:48;;;;;;;91.63;55.42;;;9.90;71.90;;;;;;5096653;28;20039;-70
2022/03/24 08:35:14;;;;;;;79.93;50.10;;;10.00;71.60;;;;;;5098375;28;20036;-69
2022/03/24 08:37:39;;;;;;;80.73;51.50;;;10.20;71.20;;;;;;5098521;28;20057;-69
2022/03/24 08:40:06;;;;;;;82.20;51.60;;;10.30;70.50;;;;;;5101957;28;20040;-69
2022/03/24 08:42:35;;;;;;;86.22;53.25;;;10.40;70.10;;;;;;5102788;28;20050;-69
2022/03/24 08:45:01;;;;;;;77.13;48.30;;;10.50;69.70;;;;;;5082071;28;20105;-70
2022/03/24 08:47:27;;;;;;;71.30;49.17;;;10.70;69.20;;;;;;5087068;28;20040;-70
2022/03/24 08:49:52;;;;;;;77.80;50.00;;;10.80;68.10;;;;;;5073290;28;20036;-69
2022/03/24 08:52:21;;;;;;;80.63;51.63;;;10.90;67.80;;;;;;5082022;28;20070;-69
2022/03/24 08:54:47;;;;;;;76.10;49.70;;;11.00;67.90;;;;;;5102026;28;20046;-70
2022/03/24 08:57:13;;;;;;;77.07;49.73;;;11.10;67.20;;;;;;5087506;28;20118;-69
2022/03/24 08:59:38;;;;;;;70.82;47.05;;;11.20;67.20;;;;;;5100449;28;20061;-69
2022/03/24 09:02:05;;;;;;;71.47;48.10;;;11.20;66.70;;;;;;5097795;28;20039;-70
2022/03/24 09:04:31;;;;;;;70.78;46.92;;;11.40;66.90;;;;;;5092777;28;20058;-70
2022/03/24 09:06:56;;;;;;;66.00;43.87;;;11.50;66.30;;;;;;5095930;28;20662;-70
2022/03/24 09:09:22;;;;;;;70.00;47.07;;;11.60;66.00;;;;;;5096125;28;20504;-70
2022/03/24 09:11:49;;;;;;;71.03;45.53;;;11.70;65.40;;;;;;5077794;28;20127;-70
2022/03/24 09:14:16;;;;;;;67.07;43.97;;;11.90;65.00;;;;;;5073996;28;20085;-70
2022/03/24 09:16:42;;;;;;;70.22;45.30;;;12.00;64.40;;;;;;5086986;28;20039;-70
2022/03/24 09:19:08;;;;;;;66.63;43.83;;;12.10;63.80;;;;;;5080812;28;20039;-70
2022/03/24 09:21:34;;;;;;;63.27;42.90;;;12.20;63.50;;;;;;5103537;28;20507;-69
2022/03/24 09:24:00;;;;;;;65.65;43.55;;;12.30;62.80;;;;;;5099099;28;20093;-70
2022/03/24 09:26:26;;;;;;;66.23;42.73;;;12.40;62.60;;;;;;5082721;28;20450;-71
2022/03/24 09:28:52;;;;;;;61.77;41.77;;;12.60;62.30;;;;;;5065977;28;20039;-70
2022/03/24 09:31:19;;;;;;;62.80;43.97;;;12.70;61.10;;;;;;5081360;28;20334;-70
2022/03/24 09:33:45;;;;;;;64.82;42.58;;;12.80;61.00;;;;;;5087307;28;20089;-70
2022/03/24 09:36:11;;;;;;;65.50;42.03;;;12.90;61.30;;;;;;5087437;28;20043;-70
2022/03/24 09:38:38;;;;;;;68.78;45.88;;;13.00;61.60;;;;;;5079396;28;20495;-71
2022/03/24 09:41:07;;;;;;;67.33;42.80;;;13.10;61.00;;;;;;5081934;28;20499;-70
2022/03/24 09:43:34;;;;;;;64.20;41.50;;;13.30;60.40;;;;;;5082237;28;20318;-70
2022/03/24 09:46:01;;;;;;;60.63;41.95;;;13.30;60.50;;;;;;5086193;28;20645;-70
2022/03/24 09:48:27;;;;;;;62.57;40.87;;;13.40;60.40;;;;;;5099364;28;20077;-71
2022/03/24 09:50:54;;;;;;;61.25;42.53;;;13.50;60.10;;;;;;5081682;28;20833;-71
2022/03/24 09:53:20;;;;;;;62.53;43.23;;;13.70;59.80;;;;;;5093239;28;20524;-71
2022/03/24 09:55:47;;;;;;;61.30;42.97;;;13.80;59.70;;;;;;5085481;28;20715;-71
2022/03/24 09:58:13;;;;;;;60.33;42.83;;;13.90;59.00;;;;;;5087249;28;20765;-71
2022/03/24 10:00:39;;;;;;;61.57;42.47;;;13.90;59.20;;;;;;5084781;28;20796;-71
2022/03/24 10:03:10;;;;;;;59.77;40.60;;;14.00;59.10;;;;;;5096627;28;20282;-71
2022/03/24 10:05:36;;;;;;;58.77;41.27;;;14.10;59.00;;;;;;5083073;28;20289;-71
2022/03/24 10:08:06;;;;;;;60.57;41.90;;;14.20;58.70;;;;;;5084191;28;20741;-71
2022/03/24 10:10:34;;;;;;;62.93;41.27;;;14.30;58.20;;;;;;5064383;28;20848;-71
2022/03/24 10:13:04;;;;;;;57.13;40.47;;;14.50;57.20;;;;;;5068841;28;20278;-71
2022/03/24 10:15:30;;;;;;;55.43;38.90;;;14.50;56.50;;;;;;5054624;28;20285;-71
2022/03/24 10:17:57;;;;;;;58.57;39.57;;;14.70;56.30;;;;;;5086142;28;20450;-71
2022/03/24 10:20:28;;;;;;;56.57;38.73;;;14.80;54.80;;;;;;5083866;28;20039;-71
2022/03/24 10:23:00;;;;;;;60.10;40.70;;;14.90;55.10;;;;;;5097782;28;20662;-71
2022/03/24 10:25:30;;;;;;;55.03;39.10;;;15.00;54.70;;;;;;5084296;28;20606;-71
2022/03/24 10:28:11;;;;;;;52.93;37.17;;;15.00;54.90;;;;;;5082439;28;20324;-71
2022/03/24 10:30:58;;;;;;;54.80;36.17;;;15.10;54.40;;;;;;5093056;28;20293;-71
2022/03/24 10:33:33;;;;;;;48.90;34.40;;;15.30;53.70;;;;;;5088976;28;20762;-71
2022/03/24 10:36:13;;;;;;;53.97;36.70;;;15.30;53.10;;;;;;5081742;28;20282;-71
2022/03/24 10:38:47;;;;;;;54.03;33.50;;;15.40;52.20;;;;;;5092667;28;20499;-71
2022/03/24 10:41:12;;;;;;;47.37;34.50;;;15.50;51.80;;;;;;5100268;28;20285;-71
2022/03/24 10:43:38;;;;;;;48.63;33.60;;;15.60;51.10;;;;;;5104247;28;20796;-71
2022/03/24 10:46:14;;;;;;;53.07;32.87;;;15.70;51.30;;;;;;5088150;28;20042;-71
2022/03/24 10:48:41;;;;;;;50.80;34.97;;;15.80;50.60;;;;;;5082041;28;20117;-71
2022/03/24 10:51:07;;;;;;;47.00;35.53;;;15.90;50.50;;;;;;5083044;28;20766;-71
2022/03/24 10:53:41;;;;;;;50.50;35.63;;;16.00;49.90;;;;;;5090285;28;20640;-71
2022/03/24 10:56:16;;;;;;;48.15;32.75;;;16.10;49.50;;;;;;5097813;28;20044;-71
2022/03/24 10:58:51;;;;;;;52.60;34.85;;;16.10;49.00;;;;;;5098037;28;20040;-71
2022/03/24 11:01:21;;;;;;;51.07;32.07;;;16.10;49.60;;;;;;5079688;28;20092;-71
2022/03/24 11:03:47;;;;;;;47.13;33.20;;;16.20;49.90;;;;;;5096746;28;20721;-71
2022/03/24 11:06:17;;;;;;;48.43;33.13;;;16.40;50.10;;;;;;5107080;28;20811;-71
2022/03/24 11:08:44;;;;;;;48.60;33.50;;;16.50;49.70;;;;;;5109744;28;20664;-72
2022/03/24 11:11:15;;;;;;;44.53;31.77;;;16.60;49.00;;;;;;5092199;28;20373;-71
2022/03/24 11:13:43;;;;;;;47.10;32.33;;;16.70;48.30;;;;;;5093153;28;20309;-71
2022/03/24 11:16:13;;;;;;;45.93;31.77;;;16.80;48.10;;;;;;5098115;28;20317;-71
2022/03/24 11:18:40;;;;;;;46.70;30.73;;;16.80;47.00;;;;;;5107246;28;20277;-71
2022/03/24 11:21:35;;;;;;;46.33;32.37;;;16.90;46.10;;;;;;5108938;28;20288;-72
2022/03/24 11:24:02;;;;;;;45.90;33.05;;;16.90;46.20;;;;;;5080191;28;20683;-72
2022/03/24 11:26:28;;;;;;;48.80;33.50;;;16.90;46.70;;;;;;5105712;28;20054;-69
2022/03/24 11:28:56;;;;;;;50.10;34.20;;;16.90;46.80;;;;;;5091027;28;20406;-69
2022/03/24 11:31:28;;;;;;;47.67;34.17;;;16.90;46.60;;;;;;5088325;28;20273;-69
2022/03/24 11:33:56;;;;;;;52.10;32.77;;;17.00;46.50;;;;;;5076458;28;20289;-69
2022/03/24 11:36:23;;;;;;;53.00;35.47;;;17.20;46.50;;;;;;5105691;28;20277;-69
2022/03/24 11:38:51;;;;;;;52.50;35.40;;;17.30;46.10;;;;;;5104504;28;20599;-70
2022/03/24 11:41:27;;;;;;;51.03;35.60;;;17.30;46.70;;;;;;5104058;28;20298;-69
2022/03/24 11:43:57;;;;;;;48.00;34.70;;;17.40;46.50;;;;;;5103614;28;20641;-70
2022/03/24 11:46:37;;;;;;;50.00;33.53;;;17.40;46.10;;;;;;5105000;28;20410;-70
2022/03/24 11:49:16;;;;;;;51.30;35.37;;;17.30;45.60;;;;;;5100430;28;20405;-69
2022/03/24 11:51:44;;;;;;;53.40;37.80;;;17.30;46.30;;;;;;5106654;28;20295;-69
2022/03/24 11:54:11;;;;;;;55.47;39.60;;;17.40;46.90;;;;;;5107696;28;20874;-69
2022/03/24 11:56:37;;;;;;;51.63;36.93;;;17.40;46.40;;;;;;5107719;28;20338;-69
2022/03/24 11:59:03;;;;;;;52.67;35.63;;;17.50;47.20;;;;;;5088803;28;20321;-70
2022/03/24 12:01:32;;;;;;;52.37;36.07;;;17.50;46.90;;;;;;5107136;28;20368;-72
2022/03/24 12:04:09;;;;;;;49.43;36.13;;;17.60;46.70;;;;;;5098241;28;20278;-72
2022/03/24 12:06:45;;;;;;;51.17;34.13;;;17.70;47.00;;;;;;5102513;28;20269;-71
2022/03/24 12:09:19;;;;;;;51.43;36.07;;;17.80;45.60;;;;;;5106565;28;20320;-72
2022/03/24 12:11:47;;;;;;;48.10;34.53;;;17.80;45.50;;;;;;5089678;28;20277;-72
2022/03/24 12:14:20;;;;;;;49.43;35.80;;;17.80;46.30;;;;;;5090944;28;20286;-71
2022/03/24 12:16:48;;;;;;;48.73;32.97;;;17.90;45.40;;;;;;5094374;28;20281;-72
2022/03/24 12:19:32;;;;;;;43.43;32.37;;;17.90;45.40;;;;;;5094345;28;20280;-72
2022/03/24 12:21:59;;;;;;;45.10;30.33;;;17.90;45.10;;;;;;5101542;28;20302;-71
2022/03/24 12:24:34;;;;;;;42.93;29.43;;;18.00;44.70;;;;;;5090001;28;20306;-71
2022/03/24 12:27:05;;;;;;;47.33;29.93;;;18.00;44.40;;;;;;5105507;28;20277;-71
2022/03/24 12:29:31;;;;;;;43.30;28.40;;;18.00;44.00;;;;;;5094585;28;20137;-71
2022/03/24 12:32:05;;;;;;;37.20;23.67;;;18.00;44.40;;;;;;5103461;28;20289;-71
2022/03/24 12:34:51;;;;;;;32.28;20.45;;;18.10;44.00;;;;;;5089494;28;20875;-71